createdAt,value
2023-04-16T00:00:18.681Z,25.00
2023-04-16T00:01:18.687Z,25.00
2023-04-16T00:02:18.757Z,25.00
2023-04-16T00:03:18.817Z,0.00
2023-04-16T00:04:18.801Z,0.00
2023-04-16T00:05:18.684Z,0.00
2023-04-16T00:06:18.745Z,0.00
2023-04-16T00:07:18.701Z,0.00
2023-04-16T00:08:18.746Z,0.00
2023-04-16T00:09:18.730Z,0.00
2023-04-16T00:10:18.726Z,0.00
2023-04-16T00:11:18.732Z,14.94
2023-04-16T00:12:18.740Z,25.60
2023-04-16T00:13:18.770Z,25.00
2023-04-16T00:14:18.748Z,25.00
2023-04-16T00:15:18.749Z,25.46
2023-04-16T00:16:18.816Z,25.00
2023-04-16T00:17:18.788Z,25.00
2023-04-16T00:18:18.789Z,25.00
2023-04-16T00:19:18.775Z,25.00
2023-04-16T00:20:18.780Z,25.81
2023-04-16T00:21:18.795Z,27.16
2023-04-16T00:22:18.791Z,25.73
2023-04-16T00:23:18.803Z,27.05
2023-04-16T00:24:18.801Z,24.40
2023-04-16T00:25:18.817Z,26.13
2023-04-16T00:26:18.812Z,26.24
2023-04-16T00:27:18.818Z,28.52
2023-04-16T00:28:18.817Z,26.51
2023-04-16T00:29:18.882Z,25.25
2023-04-16T00:30:18.832Z,28.21
2023-04-16T00:31:18.901Z,27.16
2023-04-16T00:32:18.899Z,26.13
2023-04-16T00:33:18.848Z,25.00
2023-04-16T00:34:18.861Z,27.45
2023-04-16T00:35:18.882Z,26.65
2023-04-16T00:36:18.882Z,26.06
2023-04-16T00:37:18.897Z,28.78
2023-04-16T00:38:18.907Z,28.41
2023-04-16T00:39:18.909Z,27.28
2023-04-16T00:40:18.922Z,26.68
2023-04-16T00:41:18.932Z,27.87
2023-04-16T00:42:18.934Z,26.94
2023-04-16T00:43:18.945Z,26.90
2023-04-16T00:44:18.981Z,28.53
2023-04-16T00:45:19.007Z,25.12
2023-04-16T00:46:19.026Z,25.00
2023-04-16T00:47:18.996Z,27.49
2023-04-16T00:48:18.990Z,27.89
2023-04-16T00:49:18.996Z,27.44
2023-04-16T00:50:19.009Z,26.87
2023-04-16T00:51:19.013Z,27.89
2023-04-16T00:52:19.020Z,26.87
2023-04-16T00:53:19.040Z,29.02
2023-04-16T00:54:19.047Z,29.88
2023-04-16T00:55:19.134Z,31.38
2023-04-16T00:56:19.069Z,27.04
2023-04-16T00:57:19.096Z,29.83
2023-04-16T00:58:19.096Z,28.60
2023-04-16T00:59:19.113Z,28.98
2023-04-16T01:00:19.127Z,26.41
2023-04-16T01:01:19.180Z,26.40
2023-04-16T01:02:19.187Z,27.82
2023-04-16T01:03:19.273Z,25.71
2023-04-16T01:04:19.204Z,27.74
2023-04-16T01:05:19.161Z,27.65
2023-04-16T01:06:19.171Z,27.24
2023-04-16T01:07:19.181Z,27.11
2023-04-16T01:08:19.191Z,25.92
2023-04-16T01:09:19.204Z,29.43
2023-04-16T01:10:19.207Z,27.82
2023-04-16T01:11:18.213Z,28.75
2023-04-16T01:12:19.222Z,28.72
2023-04-16T01:13:19.231Z,27.47
2023-04-16T01:14:19.244Z,29.38
2023-04-16T01:15:19.255Z,26.63
2023-04-16T01:16:19.302Z,25.00
2023-04-16T01:17:19.300Z,28.83
2023-04-16T01:18:19.276Z,28.35
2023-04-16T01:19:19.285Z,27.04
2023-04-16T01:20:19.298Z,27.68
2023-04-16T01:21:19.299Z,27.54
2023-04-16T01:22:19.325Z,27.11
2023-04-16T01:23:19.344Z,29.23
2023-04-16T01:24:19.346Z,27.99
2023-04-16T01:25:19.346Z,25.10
2023-04-16T01:26:19.359Z,27.38
2023-04-16T01:27:19.374Z,27.98
2023-04-16T01:28:19.385Z,30.65
2023-04-16T01:29:19.415Z,27.77
2023-04-16T01:30:19.439Z,29.09
2023-04-16T01:31:19.441Z,27.32
2023-04-16T01:32:19.450Z,27.88
2023-04-16T01:33:19.469Z,29.69
2023-04-16T01:34:19.452Z,27.70
2023-04-16T01:35:19.472Z,29.71
2023-04-16T01:36:19.483Z,27.87
2023-04-16T01:37:19.494Z,29.54
2023-04-16T01:38:19.513Z,29.36
2023-04-16T01:39:19.536Z,28.55
2023-04-16T01:40:19.558Z,26.49
2023-04-16T01:41:19.581Z,28.81
2023-04-16T01:42:19.577Z,29.78
2023-04-16T01:43:19.599Z,28.96
2023-04-16T01:44:19.601Z,30.78
2023-04-16T01:45:19.621Z,28.82
2023-04-16T01:46:19.678Z,29.14
2023-04-16T01:47:19.674Z,27.18
2023-04-16T01:48:19.721Z,29.10
2023-04-16T01:49:19.698Z,29.14
2023-04-16T01:50:19.691Z,27.16
2023-04-16T01:51:19.698Z,29.51
2023-04-16T01:52:19.712Z,27.89
2023-04-16T01:53:19.728Z,29.82
2023-04-16T01:54:19.758Z,28.36
2023-04-16T01:55:19.751Z,27.09
2023-04-16T01:56:19.756Z,29.38
2023-04-16T01:57:19.769Z,28.17
2023-04-16T01:58:19.780Z,27.56
2023-04-16T01:59:19.788Z,27.64
2023-04-16T02:00:19.808Z,26.87
2023-04-16T02:01:19.878Z,29.77
2023-04-16T02:02:19.955Z,28.22
2023-04-16T02:03:20.002Z,27.63
2023-04-16T02:04:19.879Z,28.18
2023-04-16T02:05:19.909Z,26.81
2023-04-16T02:06:19.899Z,28.21
2023-04-16T02:07:19.911Z,26.87
2023-04-16T02:08:19.924Z,26.10
2023-04-16T02:09:19.932Z,28.76
2023-04-16T02:10:19.943Z,28.89
2023-04-16T02:11:19.959Z,27.55
2023-04-16T02:12:19.974Z,26.67
2023-04-16T02:13:20.006Z,29.28
2023-04-16T02:14:20.007Z,27.60
2023-04-16T02:15:20.015Z,29.46
2023-04-16T02:16:20.089Z,30.73
2023-04-16T02:17:20.095Z,28.03
2023-04-16T02:18:20.055Z,28.65
2023-04-16T02:19:20.064Z,29.86
2023-04-16T02:20:20.074Z,29.37
2023-04-16T02:21:20.104Z,27.26
2023-04-16T02:22:20.117Z,31.18
2023-04-16T02:23:20.108Z,26.74
2023-04-16T02:24:20.151Z,28.70
2023-04-16T02:25:20.148Z,27.76
2023-04-16T02:26:20.142Z,27.72
2023-04-16T02:27:20.151Z,27.86
2023-04-16T02:28:20.158Z,28.91
2023-04-16T02:29:20.184Z,26.86
2023-04-16T02:30:20.199Z,29.57
2023-04-16T02:31:20.224Z,29.75
2023-04-16T02:32:20.250Z,28.77
2023-04-16T02:33:20.241Z,28.10
2023-04-16T02:34:20.257Z,29.28
2023-04-16T02:35:20.281Z,29.37
2023-04-16T02:36:20.284Z,29.52
2023-04-16T02:37:20.332Z,29.69
2023-04-16T02:38:20.338Z,30.41
2023-04-16T02:39:20.335Z,30.00
2023-04-16T02:40:20.355Z,28.98
2023-04-16T02:41:20.361Z,31.27
2023-04-16T02:42:20.371Z,28.46
2023-04-16T02:43:20.390Z,30.56
2023-04-16T02:44:20.396Z,29.55
2023-04-16T02:45:20.425Z,29.07
2023-04-16T02:46:20.441Z,28.11
2023-04-16T02:47:20.444Z,28.68
2023-04-16T02:48:20.450Z,28.07
2023-04-16T02:49:20.467Z,27.70
2023-04-16T02:50:20.484Z,28.26
2023-04-16T02:51:20.507Z,28.36
2023-04-16T02:52:20.521Z,29.10
2023-04-16T02:53:20.579Z,29.08
2023-04-16T02:54:20.551Z,28.48
2023-04-16T02:55:20.576Z,29.35
2023-04-16T02:56:20.576Z,27.77
2023-04-16T02:57:20.599Z,28.40
2023-04-16T02:58:20.608Z,25.33
2023-04-16T02:59:20.619Z,28.24
2023-04-16T03:00:20.634Z,27.35
2023-04-16T03:01:20.710Z,28.81
2023-04-16T03:02:20.710Z,26.30
2023-04-16T03:03:20.758Z,28.99
2023-04-16T03:04:20.804Z,28.66
2023-04-16T03:05:20.696Z,28.38
2023-04-16T03:06:20.696Z,25.53
2023-04-16T03:07:20.733Z,26.42
2023-04-16T03:08:20.722Z,28.16
2023-04-16T03:09:20.761Z,27.26
2023-04-16T03:10:20.749Z,26.50
2023-04-16T03:11:20.766Z,28.78
2023-04-16T03:12:20.787Z,28.98
2023-04-16T03:13:20.811Z,28.98
2023-04-16T03:14:20.821Z,28.65
2023-04-16T03:15:20.850Z,27.64
2023-04-16T03:16:20.966Z,25.98
2023-04-16T03:17:20.919Z,28.43
2023-04-16T03:18:20.911Z,29.09
2023-04-16T03:19:20.938Z,28.23
2023-04-16T03:20:20.985Z,28.45
2023-04-16T03:21:21.021Z,26.60
2023-04-16T03:22:21.049Z,29.48
2023-04-16T03:23:21.061Z,28.60
2023-04-16T03:24:21.079Z,27.51
2023-04-16T03:25:21.130Z,28.15
2023-04-16T03:26:21.133Z,26.24
2023-04-16T03:27:21.156Z,28.58
2023-04-16T03:28:21.186Z,26.68
2023-04-16T03:29:21.214Z,28.45
2023-04-16T03:30:21.232Z,27.03
2023-04-16T03:31:21.288Z,25.66
2023-04-16T03:32:21.304Z,27.44
2023-04-16T03:33:21.307Z,28.24
2023-04-16T03:34:21.349Z,27.96
2023-04-16T03:35:21.369Z,28.08
2023-04-16T03:36:21.382Z,27.66
2023-04-16T03:37:21.416Z,30.19
2023-04-16T03:38:21.435Z,27.75
2023-04-16T03:39:21.476Z,27.49
2023-04-16T03:40:21.475Z,29.50
2023-04-16T03:41:21.534Z,29.32
2023-04-16T03:42:21.522Z,28.37
2023-04-16T03:43:21.550Z,29.00
2023-04-16T03:44:21.572Z,28.57
2023-04-16T03:45:21.603Z,29.85
2023-04-16T03:46:21.645Z,28.76
2023-04-16T03:47:21.679Z,29.55
2023-04-16T03:48:21.672Z,27.63
2023-04-16T03:49:21.700Z,26.24
2023-04-16T03:50:21.720Z,29.03
2023-04-16T03:51:21.744Z,25.53
2023-04-16T03:52:21.767Z,30.35
2023-04-16T03:53:21.798Z,29.82
2023-04-16T03:54:22.930Z,30.51
2023-04-16T03:55:21.828Z,30.76
2023-04-16T03:56:21.852Z,29.99
2023-04-16T03:57:21.892Z,27.25
2023-04-16T03:58:21.891Z,31.48
2023-04-16T03:59:21.919Z,30.05
2023-04-16T04:00:21.958Z,28.73
2023-04-16T04:01:21.990Z,32.32
2023-04-16T04:02:22.250Z,31.29
2023-04-16T04:03:22.300Z,30.49
2023-04-16T04:04:22.110Z,30.53
2023-04-16T04:05:22.066Z,28.70
2023-04-16T04:06:22.105Z,30.35
2023-04-16T04:07:22.110Z,30.82
2023-04-16T04:08:22.131Z,29.49
2023-04-16T04:09:22.154Z,31.02
2023-04-16T04:10:22.178Z,30.09
2023-04-16T04:11:22.198Z,29.06
2023-04-16T04:12:22.223Z,30.31
2023-04-16T04:13:22.266Z,29.73
2023-04-16T04:14:22.269Z,28.57
2023-04-16T04:15:22.326Z,27.89
2023-04-16T04:16:22.376Z,28.14
2023-04-16T04:17:22.414Z,29.76
2023-04-16T04:18:22.371Z,29.36
2023-04-16T04:19:22.388Z,25.81
2023-04-16T04:20:22.408Z,30.72
2023-04-16T04:21:22.464Z,29.24
2023-04-16T04:22:22.458Z,28.29
2023-04-16T04:23:22.476Z,28.33
2023-04-16T04:24:22.541Z,28.17
2023-04-16T04:25:22.553Z,29.47
2023-04-16T04:26:22.628Z,28.96
2023-04-16T04:27:22.591Z,29.64
2023-04-16T04:28:22.634Z,28.91
2023-04-16T04:29:22.728Z,27.87
2023-04-16T04:30:22.665Z,28.12
2023-04-16T04:31:22.752Z,30.42
2023-04-16T04:32:22.779Z,26.46
2023-04-16T04:33:22.742Z,27.62
2023-04-16T04:34:22.763Z,28.91
2023-04-16T04:35:22.798Z,29.58
2023-04-16T04:36:22.811Z,29.35
2023-04-16T04:37:22.831Z,28.78
2023-04-16T04:38:22.854Z,28.69
2023-04-16T04:39:22.872Z,28.31
2023-04-16T04:40:22.891Z,28.29
2023-04-16T04:41:22.935Z,28.95
2023-04-16T04:42:22.941Z,27.68
2023-04-16T04:43:22.971Z,29.23
2023-04-16T04:44:22.992Z,29.21
2023-04-16T04:45:23.038Z,30.56
2023-04-16T04:46:23.047Z,29.29
2023-04-16T04:47:23.093Z,29.92
2023-04-16T04:48:23.070Z,29.06
2023-04-16T04:49:23.082Z,30.59
2023-04-16T04:50:23.123Z,29.95
2023-04-16T04:51:23.137Z,29.17
2023-04-16T04:52:23.151Z,30.36
2023-04-16T04:53:23.175Z,28.96
2023-04-16T04:54:23.193Z,29.42
2023-04-16T04:55:23.216Z,31.13
2023-04-16T04:56:23.239Z,28.65
2023-04-16T04:57:23.268Z,29.33
2023-04-16T04:58:23.293Z,29.88
2023-04-16T04:59:23.310Z,26.60
2023-04-16T05:00:23.334Z,28.94
2023-04-16T05:01:23.418Z,27.62
2023-04-16T05:02:23.439Z,28.72
2023-04-16T05:03:23.527Z,26.93
2023-04-16T05:04:23.439Z,26.77
2023-04-16T05:05:23.488Z,27.06
2023-04-16T05:06:23.501Z,30.69
2023-04-16T05:07:23.507Z,30.34
2023-04-16T05:08:23.540Z,31.09
2023-04-16T05:09:23.561Z,32.21
2023-04-16T05:10:23.591Z,30.66
2023-04-16T05:11:23.613Z,31.18
2023-04-16T05:12:23.634Z,30.20
2023-04-16T05:13:23.657Z,26.81
2023-04-16T05:14:23.674Z,27.71
2023-04-16T05:15:23.690Z,29.51
2023-04-16T05:16:23.728Z,30.71
2023-04-16T05:17:23.774Z,27.28
2023-04-16T05:18:23.746Z,27.71
2023-04-16T05:19:23.773Z,29.10
2023-04-16T05:20:23.788Z,29.48
2023-04-16T05:21:23.809Z,29.01
2023-04-16T05:22:23.835Z,28.86
2023-04-16T05:23:23.851Z,28.22
2023-04-16T05:24:23.874Z,30.44
2023-04-16T05:25:23.893Z,30.15
2023-04-16T05:26:23.913Z,30.40
2023-04-16T05:27:23.938Z,30.60
2023-04-16T05:28:23.960Z,29.37
2023-04-16T05:29:23.995Z,30.13
2023-04-16T05:30:23.996Z,28.83
2023-04-16T05:31:24.106Z,29.96
2023-04-16T05:32:24.061Z,28.05
2023-04-16T05:33:24.108Z,31.54
2023-04-16T05:34:24.104Z,29.30
2023-04-16T05:35:24.135Z,30.33
2023-04-16T05:36:24.152Z,29.47
2023-04-16T05:37:24.168Z,32.53
2023-04-16T05:38:24.188Z,30.51
2023-04-16T05:39:24.226Z,29.89
2023-04-16T05:40:24.267Z,29.34
2023-04-16T05:41:24.266Z,27.46
2023-04-16T05:42:24.276Z,29.48
2023-04-16T05:43:24.308Z,29.85
2023-04-16T05:44:25.316Z,27.25
2023-04-16T05:45:26.675Z,26.09
2023-04-16T05:46:24.358Z,26.45
2023-04-16T05:47:24.333Z,27.02
2023-04-16T05:48:24.328Z,27.10
2023-04-16T05:49:24.329Z,28.65
2023-04-16T05:50:24.300Z,28.11
2023-04-16T05:51:24.272Z,27.04
2023-04-16T05:52:24.268Z,25.50
2023-04-16T05:53:24.248Z,28.43
2023-04-16T05:54:24.247Z,25.89
2023-04-16T05:55:24.230Z,28.31
2023-04-16T05:56:24.207Z,28.15
2023-04-16T05:57:24.192Z,29.10
2023-04-16T05:58:24.177Z,28.86
2023-04-16T05:59:24.161Z,29.70
2023-04-16T06:00:24.158Z,29.89
2023-04-16T06:01:24.141Z,28.84
2023-04-16T06:02:24.373Z,28.25
2023-04-16T06:03:24.220Z,29.26
2023-04-16T06:04:24.205Z,30.12
2023-04-16T06:05:24.244Z,28.23
2023-04-16T06:06:24.084Z,29.12
2023-04-16T06:07:24.065Z,25.00
2023-04-16T06:08:24.072Z,28.68
2023-04-16T06:09:24.038Z,26.97
2023-04-16T06:10:24.022Z,30.84
2023-04-16T06:11:23.997Z,28.29
2023-04-16T06:12:23.975Z,28.20
2023-04-16T06:13:23.980Z,28.94
2023-04-16T06:14:23.952Z,29.19
2023-04-16T06:15:23.964Z,30.49
2023-04-16T06:16:24.034Z,29.97
2023-04-16T06:17:24.026Z,29.51
2023-04-16T06:18:24.004Z,29.79
2023-04-16T06:19:24.032Z,28.44
2023-04-16T06:20:24.039Z,28.89
2023-04-16T06:21:24.086Z,29.00
2023-04-16T06:22:24.078Z,31.09
2023-04-16T06:23:24.087Z,31.14
2023-04-16T06:24:24.107Z,27.54
2023-04-16T06:25:24.124Z,28.59
2023-04-16T06:26:24.131Z,29.48
2023-04-16T06:27:24.141Z,29.06
2023-04-16T06:28:24.162Z,29.96
2023-04-16T06:29:30.667Z,25.26
2023-04-16T06:30:24.176Z,25.64
2023-04-16T06:31:24.180Z,26.45
2023-04-16T06:32:24.158Z,27.90
2023-04-16T06:33:24.122Z,27.95
2023-04-16T06:34:24.103Z,28.65
2023-04-16T06:35:24.089Z,26.74
2023-04-16T06:36:24.075Z,27.25
2023-04-16T06:37:24.089Z,29.45
2023-04-16T06:38:24.076Z,26.96
2023-04-16T06:39:24.057Z,29.87
2023-04-16T06:40:24.041Z,26.82
2023-04-16T06:41:24.048Z,30.76
2023-04-16T06:42:24.091Z,25.28
2023-04-16T06:43:24.065Z,30.42
2023-04-16T06:44:24.013Z,30.86
2023-04-16T06:45:23.999Z,31.46
2023-04-16T06:46:24.023Z,29.74
2023-04-16T06:47:24.055Z,30.80
2023-04-16T06:48:23.941Z,30.56
2023-04-16T06:49:23.928Z,31.32
2023-04-16T06:50:23.915Z,30.48
2023-04-16T06:51:23.913Z,31.84
2023-04-16T06:52:23.911Z,30.53
2023-04-16T06:53:23.951Z,31.67
2023-04-16T06:54:23.885Z,31.49
2023-04-16T06:55:23.884Z,28.65
2023-04-16T06:56:23.881Z,31.78
2023-04-16T06:57:23.885Z,32.63
2023-04-16T06:58:23.849Z,30.09
2023-04-16T06:59:23.844Z,27.32
2023-04-16T07:00:23.823Z,29.07
2023-04-16T07:01:23.878Z,28.84
2023-04-16T07:02:24.015Z,32.19
2023-04-16T07:03:23.977Z,29.50
2023-04-16T07:04:23.880Z,29.11
2023-04-16T07:05:23.817Z,28.77
2023-04-16T07:06:23.784Z,30.76
2023-04-16T07:07:23.769Z,28.99
2023-04-16T07:08:23.765Z,29.51
2023-04-16T07:09:23.782Z,30.61
2023-04-16T07:10:23.763Z,25.06
2023-04-16T07:11:23.755Z,29.85
2023-04-16T07:12:23.740Z,30.81
2023-04-16T07:13:23.716Z,29.86
2023-04-16T07:14:23.696Z,30.72
2023-04-16T07:15:23.688Z,32.23
2023-04-16T07:16:23.747Z,31.14
2023-04-16T07:17:23.672Z,31.42
2023-04-16T07:18:23.668Z,31.82
2023-04-16T07:19:23.639Z,33.08
2023-04-16T07:20:23.621Z,31.50
2023-04-16T07:21:23.617Z,29.96
2023-04-16T07:22:23.596Z,33.42
2023-04-16T07:23:23.593Z,29.46
2023-04-16T07:24:23.573Z,32.61
2023-04-16T07:25:23.584Z,31.50
2023-04-16T07:26:23.555Z,33.61
2023-04-16T07:27:23.545Z,33.62
2023-04-16T07:28:23.532Z,29.09
2023-04-16T07:29:23.539Z,32.62
2023-04-16T07:30:23.517Z,33.51
2023-04-16T07:31:23.567Z,29.00
2023-04-16T07:32:23.684Z,31.50
2023-04-16T07:33:23.556Z,31.82
2023-04-16T07:34:23.585Z,29.70
2023-04-16T07:35:23.590Z,32.05
2023-04-16T07:36:23.595Z,29.80
2023-04-16T07:37:23.609Z,33.82
2023-04-16T07:38:23.621Z,30.73
2023-04-16T07:39:23.635Z,29.11
2023-04-16T07:40:23.672Z,31.06
2023-04-16T07:41:23.700Z,31.10
2023-04-16T07:42:23.678Z,30.38
2023-04-16T07:43:23.678Z,29.36
2023-04-16T07:44:23.698Z,30.85
2023-04-16T07:45:23.700Z,31.06
2023-04-16T07:46:24.968Z,30.25
2023-04-16T07:47:23.827Z,31.06
2023-04-16T07:48:23.698Z,34.24
2023-04-16T07:49:23.669Z,31.29
2023-04-16T07:50:23.700Z,33.87
2023-04-16T07:51:23.637Z,30.17
2023-04-16T07:52:23.620Z,31.38
2023-04-16T07:53:23.614Z,29.91
2023-04-16T07:54:23.619Z,30.10
2023-04-16T07:55:23.620Z,28.77
2023-04-16T07:56:23.598Z,30.10
2023-04-16T07:57:23.621Z,27.79
2023-04-16T07:58:23.604Z,29.90
2023-04-16T07:59:24.530Z,28.65
2023-04-16T08:00:23.584Z,32.77
2023-04-16T08:01:23.557Z,29.86
2023-04-16T08:02:23.743Z,32.20
2023-04-16T08:03:23.805Z,26.96
2023-04-16T08:04:23.797Z,26.59
2023-04-16T08:05:23.632Z,26.76
2023-04-16T08:06:23.501Z,32.86
2023-04-16T08:07:23.505Z,28.90
2023-04-16T08:08:23.508Z,29.63
2023-04-16T08:09:23.505Z,28.32
2023-04-16T08:10:23.478Z,30.77
2023-04-16T08:11:23.479Z,28.98
2023-04-16T08:12:23.462Z,27.21
2023-04-16T08:13:23.488Z,28.96
2023-04-16T08:14:23.458Z,27.80
2023-04-16T08:15:23.467Z,34.37
2023-04-16T08:16:23.464Z,29.20
2023-04-16T08:17:23.947Z,31.15
2023-04-16T08:18:23.422Z,29.60
2023-04-16T08:19:23.431Z,30.24
2023-04-16T08:20:23.454Z,28.97
2023-04-16T08:21:23.395Z,28.55
2023-04-16T08:22:23.446Z,28.19
2023-04-16T08:23:23.387Z,28.91
2023-04-16T08:24:23.384Z,32.87
2023-04-16T08:25:23.386Z,29.44
2023-04-16T08:26:23.406Z,31.48
2023-04-16T08:27:23.405Z,28.85
2023-04-16T08:28:23.415Z,31.36
2023-04-16T08:29:23.440Z,30.39
2023-04-16T08:30:23.426Z,31.20
2023-04-16T08:31:23.479Z,32.85
2023-04-16T08:32:23.472Z,30.71
2023-04-16T08:33:23.450Z,33.53
2023-04-16T08:34:23.454Z,31.74
2023-04-16T08:35:23.464Z,30.02
2023-04-16T08:36:23.461Z,29.23
2023-04-16T08:37:23.474Z,29.09
2023-04-16T08:38:23.484Z,32.07
2023-04-16T08:39:23.483Z,31.79
2023-04-16T08:40:23.489Z,32.34
2023-04-16T08:41:23.525Z,29.91
2023-04-16T08:42:23.510Z,25.75
2023-04-16T08:43:23.512Z,29.51
2023-04-16T08:44:23.524Z,28.33
2023-04-16T08:45:23.563Z,27.37
2023-04-16T08:46:23.619Z,31.23
2023-04-16T08:47:23.554Z,29.88
2023-04-16T08:48:23.564Z,27.34
2023-04-16T08:49:23.601Z,25.51
2023-04-16T08:50:23.592Z,32.01
2023-04-16T08:51:23.604Z,29.39
2023-04-16T08:52:23.600Z,25.63
2023-04-16T08:53:23.614Z,28.72
2023-04-16T08:54:23.615Z,31.42
2023-04-16T08:55:23.626Z,30.03
2023-04-16T08:56:23.680Z,30.79
2023-04-16T08:57:23.662Z,28.55
2023-04-16T08:58:23.643Z,27.52
2023-04-16T08:59:23.637Z,30.53
2023-04-16T09:00:23.631Z,28.50
2023-04-16T09:01:23.694Z,30.18
2023-04-16T09:02:23.880Z,31.68
2023-04-16T09:03:23.754Z,35.63
2023-04-16T09:04:23.762Z,31.44
2023-04-16T09:05:23.648Z,31.88
2023-04-16T09:06:23.670Z,29.61
2023-04-16T09:07:23.670Z,30.09
2023-04-16T09:08:23.665Z,31.43
2023-04-16T09:09:23.658Z,33.94
2023-04-16T09:10:23.684Z,30.64
2023-04-16T09:11:23.687Z,30.08
2023-04-16T09:12:23.677Z,28.59
2023-04-16T09:13:23.698Z,28.03
2023-04-16T09:14:23.672Z,32.48
2023-04-16T09:15:23.678Z,30.70
2023-04-16T09:16:23.717Z,31.58
2023-04-16T09:17:23.735Z,29.29
2023-04-16T09:18:23.689Z,28.36
2023-04-16T09:19:23.696Z,31.32
2023-04-16T09:20:23.696Z,28.59
2023-04-16T09:21:24.104Z,29.80
2023-04-16T09:22:23.707Z,29.65
2023-04-16T09:23:23.708Z,28.21
2023-04-16T09:24:23.702Z,29.87
2023-04-16T09:25:23.711Z,29.97
2023-04-16T09:26:23.708Z,29.94
2023-04-16T09:27:25.469Z,30.45
2023-04-16T09:28:23.694Z,34.18
2023-04-16T09:29:23.684Z,31.92
2023-04-16T09:30:23.687Z,32.33
2023-04-16T09:31:23.709Z,34.19
2023-04-16T09:32:23.696Z,32.64
2023-04-16T09:33:23.685Z,30.42
2023-04-16T09:34:23.648Z,27.42
2023-04-16T09:35:23.649Z,27.44
2023-04-16T09:36:23.630Z,29.04
2023-04-16T09:37:23.604Z,34.52
2023-04-16T09:38:23.583Z,30.38
2023-04-16T09:39:23.576Z,31.14
2023-04-16T09:40:23.559Z,30.96
2023-04-16T09:41:23.566Z,30.57
2023-04-16T09:42:23.509Z,36.12
2023-04-16T09:43:23.495Z,32.28
2023-04-16T09:44:23.485Z,36.20
2023-04-16T09:45:23.464Z,36.46
2023-04-16T09:46:23.552Z,33.00
2023-04-16T09:47:23.487Z,37.66
2023-04-16T09:48:23.433Z,32.69
2023-04-16T09:49:23.438Z,35.21
2023-04-16T09:50:23.397Z,34.25
2023-04-16T09:51:23.395Z,34.20
2023-04-16T09:52:23.391Z,33.53
2023-04-16T09:53:23.372Z,31.68
2023-04-16T09:54:23.354Z,30.01
2023-04-16T09:55:23.357Z,32.23
2023-04-16T09:56:23.329Z,33.43
2023-04-16T09:57:23.346Z,35.28
2023-04-16T09:58:23.313Z,33.40
2023-04-16T09:59:23.302Z,31.20
2023-04-16T10:00:23.310Z,36.07
2023-04-16T10:01:23.325Z,37.39
2023-04-16T10:02:23.387Z,32.02
2023-04-16T10:03:23.342Z,33.74
2023-04-16T10:04:23.293Z,35.59
2023-04-16T10:05:23.264Z,32.54
2023-04-16T10:06:23.422Z,34.65
2023-04-16T10:07:23.223Z,32.78
2023-04-16T10:08:23.220Z,31.72
2023-04-16T10:09:23.213Z,31.05
2023-04-16T10:10:23.210Z,35.25
2023-04-16T10:11:23.196Z,38.38
2023-04-16T10:12:23.192Z,33.62
2023-04-16T10:13:23.175Z,34.46
2023-04-16T10:14:23.162Z,32.22
2023-04-16T10:15:23.157Z,34.89
2023-04-16T10:16:23.165Z,32.99
2023-04-16T10:17:23.130Z,33.79
2023-04-16T10:18:23.170Z,34.22
2023-04-16T10:19:23.117Z,30.76
2023-04-16T10:20:23.126Z,32.04
2023-04-16T10:21:23.122Z,32.67
2023-04-16T10:22:23.077Z,32.46
2023-04-16T10:23:23.071Z,31.07
2023-04-16T10:24:23.061Z,33.82
2023-04-16T10:25:23.052Z,31.20
2023-04-16T10:26:23.041Z,32.70
2023-04-16T10:27:23.032Z,30.12
2023-04-16T10:28:23.021Z,31.84
2023-04-16T10:29:23.027Z,31.21
2023-04-16T10:30:22.989Z,31.62
2023-04-16T10:31:23.003Z,33.92
2023-04-16T10:32:22.981Z,28.98
2023-04-16T10:33:22.955Z,30.79
2023-04-16T10:34:22.947Z,30.58
2023-04-16T10:35:22.938Z,31.65
2023-04-16T10:36:22.941Z,31.09
2023-04-16T10:37:22.943Z,35.21
2023-04-16T10:38:22.922Z,32.89
2023-04-16T10:39:22.886Z,33.19
2023-04-16T10:40:22.884Z,38.04
2023-04-16T10:41:22.864Z,36.24
2023-04-16T10:42:22.842Z,35.53
2023-04-16T10:43:22.834Z,35.04
2023-04-16T10:44:22.819Z,36.84
2023-04-16T10:45:22.804Z,37.21
2023-04-16T10:46:22.862Z,37.65
2023-04-16T10:47:22.802Z,37.14
2023-04-16T10:48:22.736Z,38.92
2023-04-16T10:49:22.727Z,37.98
2023-04-16T10:50:22.699Z,37.00
2023-04-16T10:51:22.713Z,39.03
2023-04-16T10:52:22.682Z,36.71
2023-04-16T10:53:22.690Z,36.73
2023-04-16T10:54:22.662Z,40.18
2023-04-16T10:55:22.649Z,37.30
2023-04-16T10:56:22.640Z,39.33
2023-04-16T10:57:22.630Z,40.29
2023-04-16T10:58:22.630Z,38.92
2023-04-16T10:59:22.614Z,38.21
2023-04-16T11:00:22.614Z,41.42
2023-04-16T11:01:22.615Z,40.77
2023-04-16T11:02:23.326Z,38.96
2023-04-16T11:03:22.725Z,41.97
2023-04-16T11:04:22.686Z,48.67
2023-04-16T11:05:22.505Z,43.07
2023-04-16T11:06:22.486Z,42.10
2023-04-16T11:07:22.480Z,40.72
2023-04-16T11:08:24.193Z,42.77
2023-04-16T11:09:22.468Z,42.96
2023-04-16T11:10:22.428Z,40.08
2023-04-16T11:11:22.453Z,42.78
2023-04-16T11:12:22.410Z,39.41
2023-04-16T11:13:22.390Z,37.55
2023-04-16T11:14:22.346Z,39.77
2023-04-16T11:15:22.324Z,39.78
2023-04-16T11:16:22.370Z,41.47
2023-04-16T11:17:22.380Z,41.80
2023-04-16T11:18:22.293Z,38.86
2023-04-16T11:19:22.277Z,38.16
2023-04-16T11:20:22.340Z,37.55
2023-04-16T11:21:22.243Z,41.32
2023-04-16T11:22:22.222Z,40.75
2023-04-16T11:23:22.214Z,38.42
2023-04-16T11:24:22.784Z,42.44
2023-04-16T11:25:22.199Z,43.44
2023-04-16T11:26:22.152Z,40.96
2023-04-16T11:27:22.136Z,40.41
2023-04-16T11:28:22.136Z,37.99
2023-04-16T11:29:22.138Z,40.63
2023-04-16T11:30:22.124Z,39.75
2023-04-16T11:31:22.170Z,41.07
2023-04-16T11:32:22.140Z,40.62
2023-04-16T11:33:22.096Z,35.43
2023-04-16T11:34:22.096Z,39.38
2023-04-16T11:35:22.086Z,36.20
2023-04-16T11:36:22.082Z,39.78
2023-04-16T11:37:22.071Z,34.68
2023-04-16T11:38:22.064Z,41.25
2023-04-16T11:39:22.052Z,36.92
2023-04-16T11:40:22.042Z,38.56
2023-04-16T11:41:22.066Z,38.05
2023-04-16T11:42:22.086Z,38.23
2023-04-16T11:43:22.024Z,34.14
2023-04-16T11:44:22.019Z,35.03
2023-04-16T11:45:22.008Z,35.84
2023-04-16T11:46:27.776Z,35.67
2023-04-16T11:47:22.110Z,36.01
2023-04-16T11:48:22.046Z,36.43
2023-04-16T11:49:21.954Z,36.64
2023-04-16T11:50:22.470Z,36.24
2023-04-16T11:51:21.926Z,36.58
2023-04-16T11:52:21.910Z,40.99
2023-04-16T11:53:21.893Z,35.69
2023-04-16T11:54:21.869Z,38.61
2023-04-16T11:55:21.842Z,34.65
2023-04-16T11:56:21.810Z,37.45
2023-04-16T11:57:21.825Z,34.92
2023-04-16T11:58:21.791Z,34.60
2023-04-16T11:59:21.781Z,34.05
2023-04-16T12:00:24.448Z,33.99
2023-04-16T12:01:21.735Z,34.20
2023-04-16T12:02:21.888Z,34.97
2023-04-16T12:03:21.891Z,35.17
2023-04-16T12:04:21.789Z,33.45
2023-04-16T12:05:21.669Z,34.83
2023-04-16T12:06:23.297Z,35.39
2023-04-16T12:07:21.638Z,35.65
2023-04-16T12:08:21.643Z,36.11
2023-04-16T12:09:21.593Z,36.86
2023-04-16T12:10:21.592Z,36.12
2023-04-16T12:11:21.559Z,35.79
2023-04-16T12:12:21.532Z,36.64
2023-04-16T12:13:21.568Z,31.48
2023-04-16T12:14:21.494Z,34.68
2023-04-16T12:15:21.469Z,33.40
2023-04-16T12:16:21.556Z,32.60
2023-04-16T12:17:21.436Z,31.39
2023-04-16T12:18:21.417Z,33.17
2023-04-16T12:19:21.427Z,34.78
2023-04-16T12:20:21.420Z,35.73
2023-04-16T12:21:21.390Z,32.83
2023-04-16T12:22:21.367Z,32.41
2023-04-16T12:23:21.363Z,34.50
2023-04-16T12:24:21.337Z,31.96
2023-04-16T12:25:21.320Z,30.27
2023-04-16T12:26:21.305Z,36.00
2023-04-16T12:27:21.291Z,34.26
2023-04-16T12:28:21.274Z,35.58
2023-04-16T12:29:21.289Z,34.68
2023-04-16T12:30:21.239Z,35.29
2023-04-16T12:31:21.231Z,35.35
2023-04-16T12:32:21.236Z,35.87
2023-04-16T12:33:21.196Z,34.14
2023-04-16T12:34:21.180Z,35.39
2023-04-16T12:35:21.164Z,38.58
2023-04-16T12:36:21.156Z,35.82
2023-04-16T12:37:21.133Z,35.50
2023-04-16T12:38:22.768Z,38.63
2023-04-16T12:39:21.112Z,38.79
2023-04-16T12:40:21.087Z,38.15
2023-04-16T12:41:21.063Z,38.95
2023-04-16T12:42:21.041Z,38.03
2023-04-16T12:43:21.015Z,38.75
2023-04-16T12:44:20.991Z,37.90
2023-04-16T12:45:21.002Z,40.11
2023-04-16T12:46:20.972Z,39.07
2023-04-16T12:47:20.932Z,36.26
2023-04-16T12:48:20.879Z,36.60
2023-04-16T12:49:20.849Z,36.80
2023-04-16T12:50:20.830Z,33.74
2023-04-16T12:51:20.813Z,39.07
2023-04-16T12:52:23.215Z,37.51